createdAt,value
2023-09-17T00:03:49.317Z,954.1
2023-09-17T00:08:50.852Z,954.16
2023-09-17T00:13:52.809Z,954.15
2023-09-17T00:18:54.175Z,954.13
2023-09-17T00:23:55.452Z,954.13
2023-09-17T00:28:56.932Z,954.09
2023-09-17T00:33:59.088Z,954.08
2023-09-17T00:39:00.577Z,954.06
2023-09-17T00:44:02.334Z,954.05
2023-09-17T00:49:04.288Z,954.03
2023-09-17T00:54:06.096Z,954.04
2023-09-17T00:59:14.567Z,954
2023-09-17T01:04:16.351Z,954
2023-09-17T01:09:18.416Z,954.02
2023-09-17T01:14:20.536Z,954.07
2023-09-17T01:19:22.348Z,954.03
2023-09-17T01:24:24.016Z,954.11
2023-09-17T02:39:49.010Z,954.18
2023-09-17T02:44:50.666Z,954.15
2023-09-17T03:04:56.939Z,954.3
2023-09-17T04:25:25.320Z,954.77
2023-09-17T04:30:27.146Z,954.8
2023-09-17T04:35:29.039Z,954.83
2023-09-17T04:40:30.872Z,954.8
2023-09-17T04:45:32.045Z,954.84
2023-09-17T04:50:34.066Z,954.88
2023-09-17T04:55:36.111Z,954.91
2023-09-17T05:00:37.806Z,954.99
2023-09-17T05:05:39.319Z,954.96
2023-09-17T05:10:40.485Z,955.06
2023-09-17T05:15:41.924Z,955.1
2023-09-17T05:20:43.676Z,955.06
2023-09-17T05:25:45.366Z,955.09
2023-09-17T05:30:47.230Z,955.11
2023-09-17T05:35:48.871Z,955.14
2023-09-17T05:40:50.128Z,955.2
2023-09-17T05:45:51.616Z,955.18
2023-09-17T05:50:54.211Z,955.19
2023-09-17T05:55:55.425Z,955.29
2023-09-17T06:00:56.839Z,955.28
2023-09-17T06:05:58.678Z,955.34
2023-09-17T06:11:00.031Z,955.44
2023-09-17T06:16:01.912Z,955.46
2023-09-17T06:21:03.082Z,955.51
2023-09-17T06:26:04.339Z,955.49
2023-09-17T06:31:06.390Z,955.5
2023-09-17T06:36:07.798Z,955.52
2023-09-17T06:41:09.101Z,955.52
2023-09-17T06:46:10.756Z,955.56
2023-09-17T06:51:12.510Z,955.55
2023-09-17T06:56:14.310Z,955.55
2023-09-17T07:01:15.780Z,955.54
2023-09-17T07:06:17.297Z,955.64
2023-09-17T07:11:18.982Z,955.64
2023-09-17T07:16:20.358Z,955.65
2023-09-17T07:21:21.991Z,955.64
2023-09-17T07:26:23.511Z,955.61
2023-09-17T07:31:25.625Z,955.58
2023-09-17T07:36:27.073Z,955.6
2023-09-17T07:41:29.216Z,955.61
2023-09-17T07:46:31.206Z,955.62
2023-09-17T07:51:32.500Z,955.68
2023-09-17T07:56:34.114Z,955.72
2023-09-17T08:01:35.818Z,955.77
2023-09-17T08:06:37.689Z,955.84
2023-09-17T08:11:39.457Z,955.84
2023-09-17T08:16:40.717Z,955.86
2023-09-17T08:21:41.974Z,955.9
2023-09-17T08:26:44.032Z,955.81
2023-09-17T08:31:45.600Z,955.87
2023-09-17T08:36:47.022Z,955.91
2023-09-17T08:41:49.116Z,955.82
2023-09-17T08:46:50.470Z,955.79
2023-09-17T08:51:52.310Z,955.81
2023-09-17T08:56:53.815Z,955.78
2023-09-17T09:01:55.561Z,955.86
2023-09-17T09:06:57.232Z,955.79
2023-09-17T09:11:59.317Z,955.78
2023-09-17T09:17:01.478Z,955.73
2023-09-17T09:22:02.740Z,955.77
2023-09-17T09:27:04.795Z,955.79
2023-09-17T09:32:06.471Z,955.73
2023-09-17T09:37:08.144Z,955.77
2023-09-17T09:42:09.779Z,955.74
2023-09-17T09:47:11.298Z,955.81
2023-09-17T09:52:13.379Z,955.82
2023-09-17T09:57:15.547Z,955.79
2023-09-17T10:02:17.447Z,955.76
2023-09-17T10:07:18.625Z,955.8
2023-09-17T10:12:20.676Z,955.81
2023-09-17T10:17:21.905Z,955.83
2023-09-17T10:22:23.374Z,955.78
2023-09-17T10:27:24.710Z,955.76
2023-09-17T10:32:25.924Z,955.77
2023-09-17T10:37:27.293Z,955.73
2023-09-17T10:42:29.439Z,955.79
2023-09-17T10:47:30.992Z,955.79
2023-09-17T10:52:32.836Z,955.67
2023-09-17T10:57:34.639Z,955.64
2023-09-17T11:02:36.189Z,955.63
2023-09-17T11:07:38.001Z,955.54
2023-09-17T11:12:39.943Z,955.46
2023-09-17T11:17:41.941Z,955.48
2023-09-17T11:22:43.287Z,955.49
2023-09-17T11:27:44.867Z,955.42
2023-09-17T11:32:46.304Z,955.34
2023-09-17T11:37:50.408Z,955.24
2023-09-17T11:42:49.848Z,955.2
2023-09-17T11:47:51.597Z,955.24
2023-09-17T11:52:53.524Z,955.25
2023-09-17T11:57:54.792Z,955.22
2023-09-17T12:02:56.921Z,955.12
2023-09-17T12:07:58.312Z,955.09
2023-09-17T12:12:59.638Z,955.12
2023-09-17T12:18:01.361Z,955.1
2023-09-17T12:23:03.503Z,955.09
2023-09-17T12:28:05.108Z,955.06
2023-09-17T12:33:07.257Z,955.01
2023-09-17T12:38:08.901Z,955.01
2023-09-17T12:43:10.344Z,955.01
2023-09-17T12:48:12.168Z,954.98
2023-09-17T12:53:13.816Z,954.95
2023-09-17T12:58:15.667Z,954.98
2023-09-17T13:03:17.703Z,954.9
2023-09-17T13:08:19.046Z,954.84
2023-09-17T13:13:20.689Z,954.78
2023-09-17T13:18:22.854Z,954.74
2023-09-17T13:23:24.351Z,954.64
2023-09-17T13:28:26.210Z,954.59
2023-09-17T13:33:27.968Z,954.53
2023-09-17T13:38:29.912Z,954.42
2023-09-17T13:43:31.853Z,954.4
2023-09-17T13:48:33.063Z,954.37
2023-09-17T13:53:34.748Z,954.34
2023-09-17T13:58:36.436Z,954.37
2023-09-17T14:03:38.105Z,954.4
2023-09-17T14:08:39.661Z,954.44
2023-09-17T14:13:41.676Z,954.49
2023-09-17T14:18:43.402Z,954.41
2023-09-17T14:23:45.588Z,954.38
2023-09-17T14:28:47.077Z,954.37
2023-09-17T14:33:48.475Z,954.31
2023-09-17T14:38:50.842Z,954.27
2023-09-17T14:43:52.230Z,954.29
2023-09-17T14:48:54.528Z,954.24
2023-09-17T14:53:55.665Z,954.23
2023-09-17T14:58:57.654Z,954.2
2023-09-17T15:03:59.863Z,954.19
2023-09-17T15:09:01.729Z,954.11
2023-09-17T15:14:03.256Z,954.07
2023-09-17T15:19:04.773Z,954.13
2023-09-17T15:24:06.780Z,954.18
2023-09-17T15:29:08.795Z,954.14
2023-09-17T15:34:10.955Z,954.1
2023-09-17T15:39:12.425Z,954.12
2023-09-17T15:44:16.082Z,954.12
2023-09-17T15:49:15.383Z,954.08
2023-09-17T15:54:17.379Z,954.08
2023-09-17T15:59:18.676Z,954.03
2023-09-17T16:04:20.572Z,953.96
2023-09-17T17:29:49.590Z,953.7
2023-09-17T17:44:59.741Z,953.66
2023-09-17T18:10:09.281Z,953.54
2023-09-17T18:20:12.643Z,953.47
2023-09-17T18:50:22.590Z,953.48
2023-09-17T18:55:24.189Z,953.47
2023-09-17T19:00:25.707Z,953.41
2023-09-17T19:05:27.901Z,953.33
2023-09-17T19:10:29.933Z,953.25
2023-09-17T19:15:31.464Z,953.26
2023-09-17T19:20:42.525Z,953.2
2023-09-17T19:25:34.950Z,953.08
2023-09-17T19:30:36.780Z,953.03
2023-09-17T19:35:38.043Z,953.02
2023-09-17T19:40:39.789Z,952.98
2023-09-17T19:45:41.762Z,952.85
2023-09-17T19:50:43.261Z,952.8
2023-09-17T19:55:44.643Z,952.84
2023-09-17T20:00:45.954Z,952.8
2023-09-17T20:05:47.767Z,952.82
2023-09-17T20:10:49.616Z,952.76
2023-09-17T20:15:51.249Z,952.75
2023-09-17T20:20:53.360Z,952.74
2023-09-17T20:25:55.563Z,952.75
2023-09-17T20:30:56.981Z,952.69
2023-09-17T20:35:58.959Z,952.7
2023-09-17T20:41:00.775Z,952.69
2023-09-17T20:46:02.495Z,952.76
2023-09-17T20:51:05.329Z,952.73
2023-09-17T20:56:05.892Z,952.78
2023-09-17T21:01:07.295Z,952.73
2023-09-17T21:06:08.704Z,952.67
2023-09-17T21:11:10.094Z,952.63
2023-09-17T21:16:11.925Z,952.57
2023-09-17T21:21:12.884Z,952.58
2023-09-17T21:26:14.232Z,952.6
2023-09-17T21:31:15.685Z,952.65
2023-09-17T21:36:17.392Z,952.66
2023-09-17T21:41:19.284Z,952.65
2023-09-17T21:46:20.748Z,952.7
2023-09-17T21:51:22.826Z,952.67
2023-09-17T21:56:24.839Z,952.59
2023-09-17T22:01:26.226Z,952.61
2023-09-17T22:06:27.492Z,952.55
2023-09-17T22:11:28.917Z,952.49
2023-09-17T22:16:30.544Z,952.4
2023-09-17T22:21:32.333Z,952.3
2023-09-17T22:26:33.816Z,952.24
2023-09-17T22:31:35.929Z,952.26
2023-09-17T22:36:37.587Z,952.27
2023-09-17T22:41:39.382Z,952.29
2023-09-17T22:46:41.462Z,952.26
2023-09-17T22:51:43.143Z,952.15
2023-09-17T22:56:45.000Z,952.14
2023-09-17T23:01:46.657Z,952.1
2023-09-17T23:06:48.186Z,952.11
2023-09-17T23:11:49.829Z,952.09
2023-09-17T23:16:51.875Z,952.07
2023-09-17T23:21:53.705Z,951.92
2023-09-17T23:26:54.975Z,951.9
2023-09-17T23:31:57.051Z,951.86
2023-09-17T23:36:59.212Z,951.84
2023-09-17T23:42:00.680Z,951.8
2023-09-17T23:47:02.195Z,951.77
2023-09-17T23:52:04.013Z,951.77
2023-09-17T23:57:05.677Z,951.77
